RJTE(METAR)
02/20 20:00
METAR RJTE 201100Z 11005KT 9999 FEW015 SCT060 14/11 Q1010 RMK 1CU015
4SC060 A2984=
戻る
トップページへ戻る
IMOC Co,.Ltd.